sensor_id;sensor_type;location;lat;lon;timestamp;temperature;humidity
59660;DHT22;45534;52.690;6.268;2023-05-07T00:00:04;14.50;99.90
59660;DHT22;45534;52.690;6.268;2023-05-07T00:02:33;14.50;99.90
59660;DHT22;45534;52.690;6.268;2023-05-07T00:04:59;14.50;99.90
59660;DHT22;45534;52.690;6.268;2023-05-07T00:07:24;14.50;99.90
59660;DHT22;45534;52.690;6.268;2023-05-07T00:09:50;14.50;99.90
59660;DHT22;45534;52.690;6.268;2023-05-07T00:12:16;14.50;99.90
59660;DHT22;45534;52.690;6.268;2023-05-07T00:14:42;14.50;99.90
59660;DHT22;45534;52.690;6.268;2023-05-07T00:17:07;14.50;99.90
59660;DHT22;45534;52.690;6.268;2023-05-07T00:19:33;14.50;99.90
59660;DHT22;45534;52.690;6.268;2023-05-07T00:21:59;14.40;99.90
59660;DHT22;45534;52.690;6.268;2023-05-07T00:24:25;14.40;99.90
59660;DHT22;45534;52.690;6.268;2023-05-07T00:26:50;14.40;99.90
59660;DHT22;45534;52.690;6.268;2023-05-07T00:29:16;14.40;99.90
59660;DHT22;45534;52.690;6.268;2023-05-07T00:31:42;14.40;99.90
59660;DHT22;45534;52.690;6.268;2023-05-07T00:34:07;14.30;99.90
59660;DHT22;45534;52.690;6.268;2023-05-07T00:36:33;14.30;99.90
59660;DHT22;45534;52.690;6.268;2023-05-07T00:39:00;14.30;99.90
59660;DHT22;45534;52.690;6.268;2023-05-07T00:41:29;14.30;99.90
59660;DHT22;45534;52.690;6.268;2023-05-07T00:43:56;14.20;99.90
59660;DHT22;45534;52.690;6.268;2023-05-07T00:46:22;14.20;99.90
59660;DHT22;45534;52.690;6.268;2023-05-07T00:48:50;14.20;99.90
59660;DHT22;45534;52.690;6.268;2023-05-07T00:51:16;14.20;99.90
59660;DHT22;45534;52.690;6.268;2023-05-07T00:53:42;14.20;99.90
59660;DHT22;45534;52.690;6.268;2023-05-07T00:56:08;14.10;99.90
59660;DHT22;45534;52.690;6.268;2023-05-07T00:58:35;14.10;99.90
59660;DHT22;45534;52.690;6.268;2023-05-07T01:01:01;14.10;99.90
59660;DHT22;45534;52.690;6.268;2023-05-07T01:03:27;14.10;99.90
59660;DHT22;45534;52.690;6.268;2023-05-07T01:05:54;14.10;99.90
59660;DHT22;45534;52.690;6.268;2023-05-07T01:08:22;14.10;99.90
59660;DHT22;45534;52.690;6.268;2023-05-07T01:10:48;14.10;99.90
59660;DHT22;45534;52.690;6.268;2023-05-07T01:13:14;14.10;99.90
59660;DHT22;45534;52.690;6.268;2023-05-07T01:15:40;14.10;99.90
59660;DHT22;45534;52.690;6.268;2023-05-07T01:18:07;14.10;99.90
59660;DHT22;45534;52.690;6.268;2023-05-07T01:20:32;14.10;99.90
59660;DHT22;45534;52.690;6.268;2023-05-07T01:22:59;14.10;99.90
59660;DHT22;45534;52.690;6.268;2023-05-07T01:25:26;14.00;99.90
59660;DHT22;45534;52.690;6.268;2023-05-07T01:27:51;14.00;99.90
59660;DHT22;45534;52.690;6.268;2023-05-07T01:30:19;14.00;99.90
59660;DHT22;45534;52.690;6.268;2023-05-07T01:32:58;14.00;99.90
59660;DHT22;45534;52.690;6.268;2023-05-07T01:35:34;14.00;99.90
59660;DHT22;45534;52.690;6.268;2023-05-07T01:38:02;14.00;99.90
59660;DHT22;45534;52.690;6.268;2023-05-07T01:40:30;14.00;99.90
59660;DHT22;45534;52.690;6.268;2023-05-07T01:42:55;14.00;99.90
59660;DHT22;45534;52.690;6.268;2023-05-07T01:45:21;13.90;99.90
59660;DHT22;45534;52.690;6.268;2023-05-07T01:47:48;13.90;99.90
59660;DHT22;45534;52.690;6.268;2023-05-07T01:50:16;13.90;99.90
59660;DHT22;45534;52.690;6.268;2023-05-07T01:52:43;13.80;99.90
59660;DHT22;45534;52.690;6.268;2023-05-07T01:55:09;13.80;99.90
59660;DHT22;45534;52.690;6.268;2023-05-07T01:57:34;13.80;99.90
59660;DHT22;45534;52.690;6.268;2023-05-07T02:00:00;13.80;99.90
59660;DHT22;45534;52.690;6.268;2023-05-07T02:02:28;13.70;99.90
59660;DHT22;45534;52.690;6.268;2023-05-07T02:04:53;13.80;99.90
59660;DHT22;45534;52.690;6.268;2023-05-07T02:07:19;13.70;99.90
59660;DHT22;45534;52.690;6.268;2023-05-07T02:09:45;13.70;99.90
59660;DHT22;45534;52.690;6.268;2023-05-07T02:12:10;13.70;99.90
59660;DHT22;45534;52.690;6.268;2023-05-07T02:14:36;13.60;99.90
59660;DHT22;45534;52.690;6.268;2023-05-07T02:17:02;13.60;99.90
59660;DHT22;45534;52.690;6.268;2023-05-07T02:19:27;13.60;99.90
59660;DHT22;45534;52.690;6.268;2023-05-07T02:21:53;13.60;99.90
59660;DHT22;45534;52.690;6.268;2023-05-07T02:24:19;13.60;99.90
59660;DHT22;45534;52.690;6.268;2023-05-07T02:26:45;13.50;99.90
59660;DHT22;45534;52.690;6.268;2023-05-07T02:29:11;13.50;99.90
59660;DHT22;45534;52.690;6.268;2023-05-07T02:31:36;13.50;99.90
59660;DHT22;45534;52.690;6.268;2023-05-07T02:34:02;13.50;99.90
59660;DHT22;45534;52.690;6.268;2023-05-07T02:36:28;13.50;99.90
59660;DHT22;45534;52.690;6.268;2023-05-07T02:38:54;13.40;99.90
59660;DHT22;45534;52.690;6.268;2023-05-07T02:41:20;13.40;99.90
59660;DHT22;45534;52.690;6.268;2023-05-07T02:43:46;13.40;99.90
59660;DHT22;45534;52.690;6.268;2023-05-07T02:46:12;13.30;99.90
59660;DHT22;45534;52.690;6.268;2023-05-07T02:48:37;13.30;99.90
59660;DHT22;45534;52.690;6.268;2023-05-07T02:51:04;13.30;99.90
59660;DHT22;45534;52.690;6.268;2023-05-07T02:53:31;13.20;99.90
59660;DHT22;45534;52.690;6.268;2023-05-07T02:55:58;13.20;99.90
59660;DHT22;45534;52.690;6.268;2023-05-07T02:58:24;13.20;99.90
59660;DHT22;45534;52.690;6.268;2023-05-07T03:00:50;13.10;99.90
59660;DHT22;45534;52.690;6.268;2023-05-07T03:03:16;13.10;99.90
59660;DHT22;45534;52.690;6.268;2023-05-07T03:05:42;13.00;99.90
59660;DHT22;45534;52.690;6.268;2023-05-07T03:08:09;13.00;99.90
59660;DHT22;45534;52.690;6.268;2023-05-07T03:10:36;13.00;99.90
59660;DHT22;45534;52.690;6.268;2023-05-07T03:13:02;12.90;99.90
59660;DHT22;45534;52.690;6.268;2023-05-07T03:15:28;12.90;99.90
59660;DHT22;45534;52.690;6.268;2023-05-07T03:17:53;12.80;99.90
59660;DHT22;45534;52.690;6.268;2023-05-07T03:20:19;12.80;99.90
59660;DHT22;45534;52.690;6.268;2023-05-07T03:22:45;12.70;99.90
59660;DHT22;45534;52.690;6.268;2023-05-07T03:25:10;12.70;99.90
59660;DHT22;45534;52.690;6.268;2023-05-07T03:27:36;12.70;99.90
59660;DHT22;45534;52.690;6.268;2023-05-07T03:30:02;12.70;99.90
59660;DHT22;45534;52.690;6.268;2023-05-07T03:32:28;12.70;99.90
59660;DHT22;45534;52.690;6.268;2023-05-07T03:34:54;12.70;99.90
59660;DHT22;45534;52.690;6.268;2023-05-07T03:37:19;12.70;99.90
59660;DHT22;45534;52.690;6.268;2023-05-07T03:39:45;12.60;99.90
59660;DHT22;45534;52.690;6.268;2023-05-07T03:42:11;12.60;99.90
59660;DHT22;45534;52.690;6.268;2023-05-07T03:44:36;12.60;99.90
59660;DHT22;45534;52.690;6.268;2023-05-07T03:47:03;12.50;99.90
59660;DHT22;45534;52.690;6.268;2023-05-07T03:49:29;12.50;99.90
59660;DHT22;45534;52.690;6.268;2023-05-07T03:51:55;12.50;99.90
59660;DHT22;45534;52.690;6.268;2023-05-07T03:54:21;12.50;99.90
59660;DHT22;45534;52.690;6.268;2023-05-07T03:56:46;12.40;99.90
59660;DHT22;45534;52.690;6.268;2023-05-07T03:59:12;12.40;99.90
59660;DHT22;45534;52.690;6.268;2023-05-07T04:01:38;12.40;99.90
59660;DHT22;45534;52.690;6.268;2023-05-07T04:04:04;12.30;99.90
59660;DHT22;45534;52.690;6.268;2023-05-07T04:06:30;12.30;99.90
59660;DHT22;45534;52.690;6.268;2023-05-07T04:08:56;12.30;99.90
59660;DHT22;45534;52.690;6.268;2023-05-07T04:11:22;12.20;99.90
59660;DHT22;45534;52.690;6.268;2023-05-07T04:13:48;12.20;99.90
59660;DHT22;45534;52.690;6.268;2023-05-07T04:16:13;12.20;99.90
59660;DHT22;45534;52.690;6.268;2023-05-07T04:18:39;12.20;99.90
59660;DHT22;45534;52.690;6.268;2023-05-07T04:21:05;12.20;99.90
59660;DHT22;45534;52.690;6.268;2023-05-07T04:23:31;12.20;99.90
59660;DHT22;45534;52.690;6.268;2023-05-07T04:25:57;12.20;99.90
59660;DHT22;45534;52.690;6.268;2023-05-07T04:28:23;12.20;99.90
59660;DHT22;45534;52.690;6.268;2023-05-07T04:30:49;12.20;99.90
59660;DHT22;45534;52.690;6.268;2023-05-07T04:33:15;12.20;99.90
59660;DHT22;45534;52.690;6.268;2023-05-07T04:35:44;12.20;99.90
59660;DHT22;45534;52.690;6.268;2023-05-07T04:38:10;12.20;99.90
59660;DHT22;45534;52.690;6.268;2023-05-07T04:40:36;12.20;99.90
59660;DHT22;45534;52.690;6.268;2023-05-07T04:43:02;12.20;99.90
59660;DHT22;45534;52.690;6.268;2023-05-07T04:45:28;12.20;99.90
59660;DHT22;45534;52.690;6.268;2023-05-07T04:47:53;12.30;99.90
59660;DHT22;45534;52.690;6.268;2023-05-07T04:50:19;12.20;99.90
59660;DHT22;45534;52.690;6.268;2023-05-07T04:52:45;12.20;99.90
59660;DHT22;45534;52.690;6.268;2023-05-07T04:55:11;12.20;99.90
59660;DHT22;45534;52.690;6.268;2023-05-07T04:57:37;12.20;99.90
59660;DHT22;45534;52.690;6.268;2023-05-07T05:00:05;12.20;99.90
59660;DHT22;45534;52.690;6.268;2023-05-07T05:02:33;12.20;99.90
59660;DHT22;45534;52.690;6.268;2023-05-07T05:05:00;12.20;99.90
59660;DHT22;45534;52.690;6.268;2023-05-07T05:07:26;12.20;99.90
59660;DHT22;45534;52.690;6.268;2023-05-07T05:09:52;12.20;99.90
59660;DHT22;45534;52.690;6.268;2023-05-07T05:12:18;12.20;99.90
59660;DHT22;45534;52.690;6.268;2023-05-07T05:14:43;12.30;99.90
59660;DHT22;45534;52.690;6.268;2023-05-07T05:17:09;12.30;99.90
59660;DHT22;45534;52.690;6.268;2023-05-07T05:19:35;12.30;99.90
59660;DHT22;45534;52.690;6.268;2023-05-07T05:22:00;12.30;99.90
59660;DHT22;45534;52.690;6.268;2023-05-07T05:24:26;12.30;99.90
59660;DHT22;45534;52.690;6.268;2023-05-07T05:26:55;12.30;99.90
59660;DHT22;45534;52.690;6.268;2023-05-07T05:29:20;12.30;99.90
59660;DHT22;45534;52.690;6.268;2023-05-07T05:31:46;12.40;99.90
59660;DHT22;45534;52.690;6.268;2023-05-07T05:34:12;12.40;99.90
59660;DHT22;45534;52.690;6.268;2023-05-07T05:36:38;12.40;99.90
59660;DHT22;45534;52.690;6.268;2023-05-07T05:39:04;12.40;99.90
59660;DHT22;45534;52.690;6.268;2023-05-07T05:41:30;12.40;99.90
59660;DHT22;45534;52.690;6.268;2023-05-07T05:43:55;12.50;99.90
59660;DHT22;45534;52.690;6.268;2023-05-07T05:46:21;12.50;99.90
59660;DHT22;45534;52.690;6.268;2023-05-07T05:48:47;12.50;99.90
59660;DHT22;45534;52.690;6.268;2023-05-07T05:51:12;12.50;99.90
59660;DHT22;45534;52.690;6.268;2023-05-07T05:53:38;12.60;99.90
59660;DHT22;45534;52.690;6.268;2023-05-07T05:56:04;12.60;99.90
59660;DHT22;45534;52.690;6.268;2023-05-07T05:58:30;12.60;99.90
59660;DHT22;45534;52.690;6.268;2023-05-07T06:00:56;12.70;99.90
59660;DHT22;45534;52.690;6.268;2023-05-07T06:03:22;12.70;99.90
59660;DHT22;45534;52.690;6.268;2023-05-07T06:05:47;12.80;99.90
59660;DHT22;45534;52.690;6.268;2023-05-07T06:08:13;12.80;99.90
59660;DHT22;45534;52.690;6.268;2023-05-07T06:10:39;12.70;99.90
59660;DHT22;45534;52.690;6.268;2023-05-07T06:13:05;12.70;99.90
59660;DHT22;45534;52.690;6.268;2023-05-07T06:15:31;12.70;99.90
59660;DHT22;45534;52.690;6.268;2023-05-07T06:17:57;12.70;99.90
59660;DHT22;45534;52.690;6.268;2023-05-07T06:20:23;12.70;99.90
59660;DHT22;45534;52.690;6.268;2023-05-07T06:22:49;12.70;99.90
59660;DHT22;45534;52.690;6.268;2023-05-07T06:25:15;12.70;99.90
59660;DHT22;45534;52.690;6.268;2023-05-07T06:27:40;12.70;99.90
59660;DHT22;45534;52.690;6.268;2023-05-07T06:30:07;12.70;99.90
59660;DHT22;45534;52.690;6.268;2023-05-07T06:32:33;12.70;99.90
59660;DHT22;45534;52.690;6.268;2023-05-07T06:34:59;12.70;99.90
59660;DHT22;45534;52.690;6.268;2023-05-07T06:37:25;12.70;99.90
59660;DHT22;45534;52.690;6.268;2023-05-07T06:39:51;12.80;99.90
59660;DHT22;45534;52.690;6.268;2023-05-07T06:42:16;12.80;99.90
59660;DHT22;45534;52.690;6.268;2023-05-07T06:44:42;12.80;99.90
59660;DHT22;45534;52.690;6.268;2023-05-07T06:47:07;12.90;99.90
59660;DHT22;45534;52.690;6.268;2023-05-07T06:49:33;13.00;99.90
59660;DHT22;45534;52.690;6.268;2023-05-07T06:51:59;13.10;99.90
59660;DHT22;45534;52.690;6.268;2023-05-07T06:54:25;13.10;99.90
59660;DHT22;45534;52.690;6.268;2023-05-07T06:56:50;13.20;99.90
59660;DHT22;45534;52.690;6.268;2023-05-07T06:59:16;13.20;99.90
59660;DHT22;45534;52.690;6.268;2023-05-07T07:01:42;13.30;99.90
59660;DHT22;45534;52.690;6.268;2023-05-07T07:04:07;13.30;99.90
59660;DHT22;45534;52.690;6.268;2023-05-07T07:06:33;13.50;99.90
59660;DHT22;45534;52.690;6.268;2023-05-07T07:08:59;13.60;99.90
59660;DHT22;45534;52.690;6.268;2023-05-07T07:11:25;13.70;99.90
59660;DHT22;45534;52.690;6.268;2023-05-07T07:13:51;13.90;99.90
59660;DHT22;45534;52.690;6.268;2023-05-07T07:16:19;13.90;99.90
59660;DHT22;45534;52.690;6.268;2023-05-07T07:18:45;13.90;99.90
59660;DHT22;45534;52.690;6.268;2023-05-07T07:21:10;14.00;99.90
59660;DHT22;45534;52.690;6.268;2023-05-07T07:23:36;14.00;99.90
59660;DHT22;45534;52.690;6.268;2023-05-07T07:26:02;14.00;99.90
59660;DHT22;45534;52.690;6.268;2023-05-07T07:28:27;14.10;99.90
59660;DHT22;45534;52.690;6.268;2023-05-07T07:30:53;14.20;99.90
59660;DHT22;45534;52.690;6.268;2023-05-07T07:33:19;14.30;99.90
59660;DHT22;45534;52.690;6.268;2023-05-07T07:35:44;14.40;99.90
59660;DHT22;45534;52.690;6.268;2023-05-07T07:38:10;14.50;99.90
59660;DHT22;45534;52.690;6.268;2023-05-07T07:40:36;14.60;99.90
59660;DHT22;45534;52.690;6.268;2023-05-07T07:43:01;14.60;99.90
59660;DHT22;45534;52.690;6.268;2023-05-07T07:45:27;14.70;99.90
59660;DHT22;45534;52.690;6.268;2023-05-07T07:47:53;14.80;99.90
59660;DHT22;45534;52.690;6.268;2023-05-07T07:50:19;14.90;99.90
59660;DHT22;45534;52.690;6.268;2023-05-07T07:52:44;15.00;99.90
59660;DHT22;45534;52.690;6.268;2023-05-07T07:55:10;15.10;99.90
59660;DHT22;45534;52.690;6.268;2023-05-07T07:57:37;15.10;99.90
59660;DHT22;45534;52.690;6.268;2023-05-07T08:00:03;15.20;99.90
59660;DHT22;45534;52.690;6.268;2023-05-07T08:02:29;15.20;99.90
59660;DHT22;45534;52.690;6.268;2023-05-07T08:04:55;15.20;99.90
59660;DHT22;45534;52.690;6.268;2023-05-07T08:07:21;15.20;99.90
59660;DHT22;45534;52.690;6.268;2023-05-07T08:09:48;15.20;99.90
59660;DHT22;45534;52.690;6.268;2023-05-07T08:12:14;15.20;99.90
59660;DHT22;45534;52.690;6.268;2023-05-07T08:14:40;15.30;99.90
59660;DHT22;45534;52.690;6.268;2023-05-07T08:17:06;15.40;99.90
59660;DHT22;45534;52.690;6.268;2023-05-07T08:19:32;15.60;99.90
59660;DHT22;45534;52.690;6.268;2023-05-07T08:21:57;15.60;99.90
59660;DHT22;45534;52.690;6.268;2023-05-07T08:24:23;15.70;99.90
59660;DHT22;45534;52.690;6.268;2023-05-07T08:26:49;15.80;99.90
59660;DHT22;45534;52.690;6.268;2023-05-07T08:29:15;15.80;99.90
59660;DHT22;45534;52.690;6.268;2023-05-07T08:31:41;15.80;99.90
59660;DHT22;45534;52.690;6.268;2023-05-07T08:34:07;16.00;99.90
59660;DHT22;45534;52.690;6.268;2023-05-07T08:36:33;16.20;99.90
59660;DHT22;45534;52.690;6.268;2023-05-07T08:38:59;16.30;99.90
59660;DHT22;45534;52.690;6.268;2023-05-07T08:41:25;16.40;99.90
59660;DHT22;45534;52.690;6.268;2023-05-07T08:43:51;16.40;99.90
59660;DHT22;45534;52.690;6.268;2023-05-07T08:46:19;16.50;99.90
59660;DHT22;45534;52.690;6.268;2023-05-07T08:48:47;16.80;99.90
59660;DHT22;45534;52.690;6.268;2023-05-07T08:51:14;17.00;99.90
59660;DHT22;45534;52.690;6.268;2023-05-07T08:53:41;17.20;99.90
59660;DHT22;45534;52.690;6.268;2023-05-07T08:56:08;17.20;99.90
59660;DHT22;45534;52.690;6.268;2023-05-07T08:58:34;17.30;99.90
59660;DHT22;45534;52.690;6.268;2023-05-07T09:01:06;17.30;99.90
59660;DHT22;45534;52.690;6.268;2023-05-07T09:03:32;17.40;99.90
59660;DHT22;45534;52.690;6.268;2023-05-07T09:05:58;17.60;99.90
59660;DHT22;45534;52.690;6.268;2023-05-07T09:08:25;17.70;99.90
59660;DHT22;45534;52.690;6.268;2023-05-07T09:10:52;17.80;99.90
59660;DHT22;45534;52.690;6.268;2023-05-07T09:13:20;18.00;99.90
59660;DHT22;45534;52.690;6.268;2023-05-07T09:15:46;18.10;99.90
59660;DHT22;45534;52.690;6.268;2023-05-07T09:18:15;18.20;99.90
59660;DHT22;45534;52.690;6.268;2023-05-07T09:20:41;18.20;99.90
59660;DHT22;45534;52.690;6.268;2023-05-07T09:23:07;18.20;99.90
59660;DHT22;45534;52.690;6.268;2023-05-07T09:25:34;18.20;99.90
59660;DHT22;45534;52.690;6.268;2023-05-07T09:28:01;18.30;99.90
59660;DHT22;45534;52.690;6.268;2023-05-07T09:30:31;18.40;99.90
59660;DHT22;45534;52.690;6.268;2023-05-07T09:33:01;18.50;99.90
59660;DHT22;45534;52.690;6.268;2023-05-07T09:35:28;18.50;99.90
59660;DHT22;45534;52.690;6.268;2023-05-07T09:37:55;18.50;99.90
59660;DHT22;45534;52.690;6.268;2023-05-07T09:40:26;18.50;99.90
59660;DHT22;45534;52.690;6.268;2023-05-07T09:42:53;18.60;99.90
59660;DHT22;45534;52.690;6.268;2023-05-07T09:45:37;18.70;99.90
59660;DHT22;45534;52.690;6.268;2023-05-07T09:48:05;18.90;99.90
59660;DHT22;45534;52.690;6.268;2023-05-07T09:50:42;19.00;99.90
59660;DHT22;45534;52.690;6.268;2023-05-07T09:53:13;19.20;99.90
59660;DHT22;45534;52.690;6.268;2023-05-07T09:55:42;19.30;99.90
59660;DHT22;45534;52.690;6.268;2023-05-07T09:58:09;19.20;99.90
59660;DHT22;45534;52.690;6.268;2023-05-07T10:00:37;19.20;99.90
59660;DHT22;45534;52.690;6.268;2023-05-07T10:03:06;19.10;99.90
59660;DHT22;45534;52.690;6.268;2023-05-07T10:05:32;19.00;99.90
59660;DHT22;45534;52.690;6.268;2023-05-07T10:07:58;19.00;99.90
59660;DHT22;45534;52.690;6.268;2023-05-07T10:10:26;19.10;99.90
59660;DHT22;45534;52.690;6.268;2023-05-07T10:12:53;19.20;99.90
59660;DHT22;45534;52.690;6.268;2023-05-07T10:15:19;19.40;99.90
59660;DHT22;45534;52.690;6.268;2023-05-07T10:17:45;19.60;99.90
59660;DHT22;45534;52.690;6.268;2023-05-07T10:20:12;19.90;99.90
59660;DHT22;45534;52.690;6.268;2023-05-07T10:22:43;20.00;99.90
59660;DHT22;45534;52.690;6.268;2023-05-07T10:25:18;20.10;99.90
59660;DHT22;45534;52.690;6.268;2023-05-07T10:27:48;20.20;99.90
59660;DHT22;45534;52.690;6.268;2023-05-07T10:30:42;20.20;99.90
59660;DHT22;45534;52.690;6.268;2023-05-07T10:33:13;20.40;99.90
59660;DHT22;45534;52.690;6.268;2023-05-07T10:35:42;20.60;99.90
59660;DHT22;45534;52.690;6.268;2023-05-07T10:38:09;21.00;99.90
59660;DHT22;45534;52.690;6.268;2023-05-07T10:40:35;21.20;99.90
59660;DHT22;45534;52.690;6.268;2023-05-07T10:43:03;21.10;99.90
59660;DHT22;45534;52.690;6.268;2023-05-07T10:45:32;21.10;99.90
59660;DHT22;45534;52.690;6.268;2023-05-07T10:48:15;21.20;99.90
59660;DHT22;45534;52.690;6.268;2023-05-07T10:50:42;21.30;99.90
59660;DHT22;45534;52.690;6.268;2023-05-07T10:55:50;21.70;99.90
59660;DHT22;45534;52.690;6.268;2023-05-07T10:58:27;21.80;99.90
59660;DHT22;45534;52.690;6.268;2023-05-07T11:01:00;21.70;99.90
59660;DHT22;45534;52.690;6.268;2023-05-07T11:03:27;21.60;99.90
59660;DHT22;45534;52.690;6.268;2023-05-07T11:06:09;21.60;99.90
59660;DHT22;45534;52.690;6.268;2023-05-07T11:08:57;21.70;99.90
59660;DHT22;45534;52.690;6.268;2023-05-07T11:14:11;22.30;99.90
59660;DHT22;45534;52.690;6.268;2023-05-07T11:16:37;22.70;99.90
59660;DHT22;45534;52.690;6.268;2023-05-07T11:19:04;22.90;99.90
59660;DHT22;45534;52.690;6.268;2023-05-07T11:21:42;22.90;99.90
59660;DHT22;45534;52.690;6.268;2023-05-07T11:24:10;22.90;99.90
59660;DHT22;45534;52.690;6.268;2023-05-07T11:26:49;22.80;99.90
59660;DHT22;45534;52.690;6.268;2023-05-07T11:29:19;22.90;99.90
59660;DHT22;45534;52.690;6.268;2023-05-07T11:31:52;22.80;99.90
59660;DHT22;45534;52.690;6.268;2023-05-07T11:34:26;22.80;99.90
59660;DHT22;45534;52.690;6.268;2023-05-07T11:36:52;23.10;99.90
59660;DHT22;45534;52.690;6.268;2023-05-07T11:39:32;23.00;99.90
59660;DHT22;45534;52.690;6.268;2023-05-07T11:42:01;22.70;99.90
59660;DHT22;45534;52.690;6.268;2023-05-07T11:44:46;22.60;99.90
59660;DHT22;45534;52.690;6.268;2023-05-07T11:47:17;22.40;99.90
59660;DHT22;45534;52.690;6.268;2023-05-07T11:49:46;22.40;99.90
59660;DHT22;45534;52.690;6.268;2023-05-07T11:52:13;22.40;99.90
59660;DHT22;45534;52.690;6.268;2023-05-07T11:54:38;22.40;99.90
59660;DHT22;45534;52.690;6.268;2023-05-07T11:57:04;22.30;99.90
59660;DHT22;45534;52.690;6.268;2023-05-07T11:59:38;22.20;99.90
59660;DHT22;45534;52.690;6.268;2023-05-07T12:02:06;22.00;99.90
59660;DHT22;45534;52.690;6.268;2023-05-07T12:04:31;21.90;99.90
59660;DHT22;45534;52.690;6.268;2023-05-07T12:06:57;21.90;99.90
59660;DHT22;45534;52.690;6.268;2023-05-07T12:09:23;22.00;99.90
59660;DHT22;45534;52.690;6.268;2023-05-07T12:11:49;22.20;99.90
59660;DHT22;45534;52.690;6.268;2023-05-07T12:14:17;22.20;99.90
59660;DHT22;45534;52.690;6.268;2023-05-07T12:16:43;22.10;99.90
59660;DHT22;45534;52.690;6.268;2023-05-07T12:19:10;22.10;99.90
59660;DHT22;45534;52.690;6.268;2023-05-07T12:21:38;22.10;99.90
59660;DHT22;45534;52.690;6.268;2023-05-07T12:24:08;21.90;99.90
59660;DHT22;45534;52.690;6.268;2023-05-07T12:26:38;21.80;99.90
59660;DHT22;45534;52.690;6.268;2023-05-07T12:29:04;21.60;99.90
59660;DHT22;45534;52.690;6.268;2023-05-07T12:31:30;21.50;99.90
59660;DHT22;45534;52.690;6.268;2023-05-07T12:33:56;21.50;99.90
59660;DHT22;45534;52.690;6.268;2023-05-07T12:36:21;21.60;99.90
59660;DHT22;45534;52.690;6.268;2023-05-07T12:38:49;21.70;99.90
59660;DHT22;45534;52.690;6.268;2023-05-07T12:41:15;21.50;99.90
59660;DHT22;45534;52.690;6.268;2023-05-07T12:43:44;21.30;99.90
59660;DHT22;45534;52.690;6.268;2023-05-07T12:46:11;21.10;99.90
59660;DHT22;45534;52.690;6.268;2023-05-07T12:48:44;21.00;99.90
59660;DHT22;45534;52.690;6.268;2023-05-07T12:51:12;20.80;99.90
59660;DHT22;45534;52.690;6.268;2023-05-07T12:53:41;20.80;99.90
59660;DHT22;45534;52.690;6.268;2023-05-07T12:56:08;20.90;99.90
59660;DHT22;45534;52.690;6.268;2023-05-07T12:58:35;21.00;99.90
59660;DHT22;45534;52.690;6.268;2023-05-07T13:01:05;21.10;99.90
59660;DHT22;45534;52.690;6.268;2023-05-07T13:03:32;21.10;99.90
59660;DHT22;45534;52.690;6.268;2023-05-07T13:06:00;21.00;99.90
59660;DHT22;45534;52.690;6.268;2023-05-07T13:08:31;20.80;99.90
59660;DHT22;45534;52.690;6.268;2023-05-07T13:11:01;20.80;99.90
59660;DHT22;45534;52.690;6.268;2023-05-07T13:13:35;20.70;99.90
59660;DHT22;45534;52.690;6.268;2023-05-07T13:16:02;20.70;99.90
59660;DHT22;45534;52.690;6.268;2023-05-07T13:18:30;20.70;99.90
59660;DHT22;45534;52.690;6.268;2023-05-07T13:20:56;20.70;99.90
59660;DHT22;45534;52.690;6.268;2023-05-07T13:23:22;20.80;99.90
59660;DHT22;45534;52.690;6.268;2023-05-07T13:25:48;20.90;99.90
59660;DHT22;45534;52.690;6.268;2023-05-07T13:28:14;21.10;99.90
59660;DHT22;45534;52.690;6.268;2023-05-07T13:30:40;21.30;99.90
59660;DHT22;45534;52.690;6.268;2023-05-07T13:33:06;21.50;99.90
59660;DHT22;45534;52.690;6.268;2023-05-07T13:35:32;21.70;99.90
59660;DHT22;45534;52.690;6.268;2023-05-07T13:37:58;21.90;99.90
59660;DHT22;45534;52.690;6.268;2023-05-07T13:40:24;22.20;99.90
59660;DHT22;45534;52.690;6.268;2023-05-07T13:42:50;22.50;99.90
59660;DHT22;45534;52.690;6.268;2023-05-07T13:45:17;22.60;99.90
59660;DHT22;45534;52.690;6.268;2023-05-07T13:47:43;22.50;99.90
59660;DHT22;45534;52.690;6.268;2023-05-07T13:50:10;22.50;99.90
59660;DHT22;45534;52.690;6.268;2023-05-07T13:52:41;22.70;99.90
59660;DHT22;45534;52.690;6.268;2023-05-07T13:55:09;22.70;99.90
59660;DHT22;45534;52.690;6.268;2023-05-07T13:57:35;22.60;99.90
59660;DHT22;45534;52.690;6.268;2023-05-07T14:00:01;22.40;99.90
59660;DHT22;45534;52.690;6.268;2023-05-07T14:02:26;22.10;99.90
59660;DHT22;45534;52.690;6.268;2023-05-07T14:04:52;21.90;99.90
59660;DHT22;45534;52.690;6.268;2023-05-07T14:07:17;21.70;99.90
59660;DHT22;45534;52.690;6.268;2023-05-07T14:09:43;21.70;99.90
59660;DHT22;45534;52.690;6.268;2023-05-07T14:12:10;21.80;99.90
59660;DHT22;45534;52.690;6.268;2023-05-07T14:14:36;21.90;99.90
59660;DHT22;45534;52.690;6.268;2023-05-07T14:17:02;21.90;99.90
59660;DHT22;45534;52.690;6.268;2023-05-07T14:19:27;21.70;99.90
59660;DHT22;45534;52.690;6.268;2023-05-07T14:21:53;21.60;99.90
59660;DHT22;45534;52.690;6.268;2023-05-07T14:24:18;21.70;99.90
59660;DHT22;45534;52.690;6.268;2023-05-07T14:26:44;21.70;99.90
59660;DHT22;45534;52.690;6.268;2023-05-07T14:29:10;21.60;99.90
59660;DHT22;45534;52.690;6.268;2023-05-07T14:31:36;21.40;99.90
59660;DHT22;45534;52.690;6.268;2023-05-07T14:34:02;21.30;99.90
59660;DHT22;45534;52.690;6.268;2023-05-07T14:36:27;21.30;99.90
59660;DHT22;45534;52.690;6.268;2023-05-07T14:38:55;21.40;99.90
59660;DHT22;45534;52.690;6.268;2023-05-07T14:41:22;21.50;99.90
59660;DHT22;45534;52.690;6.268;2023-05-07T14:43:48;21.60;99.90
59660;DHT22;45534;52.690;6.268;2023-05-07T14:46:17;21.50;99.90
59660;DHT22;45534;52.690;6.268;2023-05-07T14:48:46;21.40;99.90
59660;DHT22;45534;52.690;6.268;2023-05-07T14:51:13;21.10;99.90
59660;DHT22;45534;52.690;6.268;2023-05-07T14:53:40;20.80;99.90
59660;DHT22;45534;52.690;6.268;2023-05-07T14:56:06;20.60;99.90
59660;DHT22;45534;52.690;6.268;2023-05-07T14:58:32;20.50;99.90
59660;DHT22;45534;52.690;6.268;2023-05-07T15:00:58;20.60;99.90
59660;DHT22;45534;52.690;6.268;2023-05-07T15:03:24;20.60;99.90
59660;DHT22;45534;52.690;6.268;2023-05-07T15:05:50;20.50;99.90
59660;DHT22;45534;52.690;6.268;2023-05-07T15:08:17;20.60;99.90
59660;DHT22;45534;52.690;6.268;2023-05-07T15:10:43;20.60;99.90
59660;DHT22;45534;52.690;6.268;2023-05-07T15:13:10;20.50;99.90
59660;DHT22;45534;52.690;6.268;2023-05-07T15:15:37;20.40;99.90
59660;DHT22;45534;52.690;6.268;2023-05-07T15:18:03;20.40;99.90
59660;DHT22;45534;52.690;6.268;2023-05-07T15:20:29;20.20;99.90
59660;DHT22;45534;52.690;6.268;2023-05-07T15:22:55;20.20;99.90
59660;DHT22;45534;52.690;6.268;2023-05-07T15:25:21;20.20;99.90
59660;DHT22;45534;52.690;6.268;2023-05-07T15:27:47;20.20;99.90
59660;DHT22;45534;52.690;6.268;2023-05-07T15:30:13;20.20;99.90
59660;DHT22;45534;52.690;6.268;2023-05-07T15:32:40;20.20;99.90